Accueil
METAR-TAF:

METAR-TAF

Aéroports :

Bamako, Mali

Aéroport international Modibo Keïta

latitude: 12-32N, longitude: 007-57W, altitude: 380 m

Observation

Le bulletin a été fait il y a 20 minutes, à 12:30 UTC
Vent 5 kt de sud
Température 36°C
Humidité 27%
Pression 1015 hPa
Visibilité 10 km ou plus
pas de nuages en-dessous de 1500 mètres et pas de cumulonimbus.

METAR: GABS 181230Z 17005KT CAVOK 36/14 Q1015 NOSIG

Heure: 12:50 (12:50 UTC)

Prévision

Le bulletin a été fait il y a 1 heure et 50 minutes, à 11:00 UTC
Prévision valable du 18 à 12 UTC au 19 à 18 UTC
Vent 10 kt de est
Visibilité: 8000 m
Probabilité 30% :
Temporairement
du 18 à 17 UTC au 18 à 23 UTC
Visibilité: 4000 m
poussière généralisée

TAF: GABS 181100Z 1812/1918 08010KT 8000 NSC PROB30 TEMPO 1817/1823 4000 DU

Observations et prévisions météorologiques de plus de 4000 aéroports (messages METAR et TAF).

Les stations disponibles sont représentées par des disques jaunes et rouges sur la carte.

Passer la souris dessus pour voir le nom de la station.

Cliquer dessus pour voir les observations et prévisions météorologiques.

Pour changer de carte: cliquez sur les boutons verts avec une croix noire pour zoomer, sur le bouton vert avec un tiret pour effectuer un zoom arrière, ou sur les flèches vertes pour les cartes adjacentes.


METAR-TAF: